sensor_id;sensor_type;location;lat;lon;timestamp;temperature;humidity
40257;DHT22;25977;45.462;9.210;2023-11-21T00:00:13;12.20;96.00
40257;DHT22;25977;45.462;9.210;2023-11-21T00:02:40;12.20;95.90
40257;DHT22;25977;45.462;9.210;2023-11-21T00:05:10;12.20;95.90
40257;DHT22;25977;45.462;9.210;2023-11-21T00:07:37;12.20;95.90
40257;DHT22;25977;45.462;9.210;2023-11-21T00:10:03;12.20;96.00
40257;DHT22;25977;45.462;9.210;2023-11-21T00:12:31;12.20;95.90
40257;DHT22;25977;45.462;9.210;2023-11-21T00:14:57;12.50;96.00
40257;DHT22;25977;45.462;9.210;2023-11-21T00:17:23;12.30;95.90
40257;DHT22;25977;45.462;9.210;2023-11-21T00:19:50;12.20;95.80
40257;DHT22;25977;45.462;9.210;2023-11-21T00:22:18;12.20;95.90
40257;DHT22;25977;45.462;9.210;2023-11-21T00:24:43;12.40;95.90
40257;DHT22;25977;45.462;9.210;2023-11-21T00:27:09;12.20;95.80
40257;DHT22;25977;45.462;9.210;2023-11-21T00:29:35;12.30;95.70
40257;DHT22;25977;45.462;9.210;2023-11-21T00:32:01;12.20;95.60
40257;DHT22;25977;45.462;9.210;2023-11-21T00:34:27;12.10;95.50
40257;DHT22;25977;45.462;9.210;2023-11-21T00:36:53;12.10;95.60
40257;DHT22;25977;45.462;9.210;2023-11-21T00:39:20;12.20;95.50
40257;DHT22;25977;45.462;9.210;2023-11-21T00:41:45;12.10;95.50
40257;DHT22;25977;45.462;9.210;2023-11-21T00:44:11;12.10;95.50
40257;DHT22;25977;45.462;9.210;2023-11-21T00:46:37;12.30;98.30
40257;DHT22;25977;45.462;9.210;2023-11-21T00:49:03;12.00;98.30
40257;DHT22;25977;45.462;9.210;2023-11-21T00:51:31;12.50;98.40
40257;DHT22;25977;45.462;9.210;2023-11-21T00:53:57;12.30;98.40
40257;DHT22;25977;45.462;9.210;2023-11-21T00:56:23;12.40;96.90
40257;DHT22;25977;45.462;9.210;2023-11-21T00:58:49;12.20;98.40
40257;DHT22;25977;45.462;9.210;2023-11-21T01:01:21;12.40;97.40
40257;DHT22;25977;45.462;9.210;2023-11-21T01:03:48;12.40;98.40
40257;DHT22;25977;45.462;9.210;2023-11-21T01:06:17;12.00;98.40
40257;DHT22;25977;45.462;9.210;2023-11-21T01:08:44;12.20;98.30
40257;DHT22;25977;45.462;9.210;2023-11-21T01:11:10;11.90;98.20
40257;DHT22;25977;45.462;9.210;2023-11-21T01:13:40;12.10;98.30
40257;DHT22;25977;45.462;9.210;2023-11-21T01:16:07;12.30;98.40
40257;DHT22;25977;45.462;9.210;2023-11-21T01:18:34;12.30;98.40
40257;DHT22;25977;45.462;9.210;2023-11-21T01:21:00;12.60;98.50
40257;DHT22;25977;45.462;9.210;2023-11-21T01:23:26;12.50;98.60
40257;DHT22;25977;45.462;9.210;2023-11-21T01:25:53;12.20;98.50
40257;DHT22;25977;45.462;9.210;2023-11-21T01:30:45;12.20;95.40
40257;DHT22;25977;45.462;9.210;2023-11-21T01:33:11;12.50;98.50
40257;DHT22;25977;45.462;9.210;2023-11-21T01:35:37;12.40;98.50
40257;DHT22;25977;45.462;9.210;2023-11-21T01:38:03;12.40;98.50
40257;DHT22;25977;45.462;9.210;2023-11-21T01:40:31;12.20;95.00
40257;DHT22;25977;45.462;9.210;2023-11-21T01:45:23;12.20;95.10
40257;DHT22;25977;45.462;9.210;2023-11-21T01:47:50;12.30;95.30
40257;DHT22;25977;45.462;9.210;2023-11-21T01:50:16;12.30;95.30
40257;DHT22;25977;45.462;9.210;2023-11-21T01:52:45;12.10;98.20
40257;DHT22;25977;45.462;9.210;2023-11-21T01:57:40;12.50;98.20
40257;DHT22;25977;45.462;9.210;2023-11-21T02:02:43;11.80;98.00
40257;DHT22;25977;45.462;9.210;2023-11-21T02:05:19;12.50;96.60
40257;DHT22;25977;45.462;9.210;2023-11-21T02:07:46;12.50;98.20
40257;DHT22;25977;45.462;9.210;2023-11-21T02:10:15;12.30;94.70
40257;DHT22;25977;45.462;9.210;2023-11-21T02:12:41;12.10;97.80
40257;DHT22;25977;45.462;9.210;2023-11-21T02:15:09;12.10;97.90
40257;DHT22;25977;45.462;9.210;2023-11-21T02:17:43;12.30;94.90
40257;DHT22;25977;45.462;9.210;2023-11-21T02:20:11;12.30;97.90
40257;DHT22;25977;45.462;9.210;2023-11-21T02:22:42;12.40;97.80
40257;DHT22;25977;45.462;9.210;2023-11-21T02:25:08;12.30;94.70
40257;DHT22;25977;45.462;9.210;2023-11-21T02:27:34;12.30;94.70
40257;DHT22;25977;45.462;9.210;2023-11-21T02:30:00;12.30;94.70
40257;DHT22;25977;45.462;9.210;2023-11-21T02:32:27;12.30;94.70
40257;DHT22;25977;45.462;9.210;2023-11-21T02:34:52;12.40;97.50
40257;DHT22;25977;45.462;9.210;2023-11-21T02:37:21;12.60;97.60
40257;DHT22;25977;45.462;9.210;2023-11-21T02:39:47;12.10;97.40
40257;DHT22;25977;45.462;9.210;2023-11-21T02:42:12;12.40;97.70
40257;DHT22;25977;45.462;9.210;2023-11-21T02:44:38;12.70;97.80
40257;DHT22;25977;45.462;9.210;2023-11-21T02:47:04;11.90;97.80
40257;DHT22;25977;45.462;9.210;2023-11-21T02:54:22;12.30;94.60
40257;DHT22;25977;45.462;9.210;2023-11-21T02:56:48;12.30;94.90
40257;DHT22;25977;45.462;9.210;2023-11-21T02:59:15;12.60;98.20
40257;DHT22;25977;45.462;9.210;2023-11-21T03:01:41;12.40;95.30
40257;DHT22;25977;45.462;9.210;2023-11-21T03:04:07;12.70;98.50
40257;DHT22;25977;45.462;9.210;2023-11-21T03:08:59;12.50;98.80
40257;DHT22;25977;45.462;9.210;2023-11-21T03:11:25;12.30;98.80
40257;DHT22;25977;45.462;9.210;2023-11-21T03:13:51;12.10;98.70
40257;DHT22;25977;45.462;9.210;2023-11-21T03:16:18;12.30;99.00
40257;DHT22;25977;45.462;9.210;2023-11-21T03:21:12;12.50;99.20
40257;DHT22;25977;45.462;9.210;2023-11-21T03:23:38;12.50;99.30
40257;DHT22;25977;45.462;9.210;2023-11-21T03:26:04;12.40;99.30
40257;DHT22;25977;45.462;9.210;2023-11-21T03:28:30;11.90;99.20
40257;DHT22;25977;45.462;9.210;2023-11-21T03:30:56;12.20;96.40
40257;DHT22;25977;45.462;9.210;2023-11-21T03:35:49;12.20;99.00
40257;DHT22;25977;45.462;9.210;2023-11-21T03:38:15;12.40;99.20
40257;DHT22;25977;45.462;9.210;2023-11-21T03:40:41;12.50;98.40
40257;DHT22;25977;45.462;9.210;2023-11-21T03:43:07;12.20;99.40
40257;DHT22;25977;45.462;9.210;2023-11-21T03:45:33;12.50;99.70
40257;DHT22;25977;45.462;9.210;2023-11-21T03:47:59;12.30;99.30
40257;DHT22;25977;45.462;9.210;2023-11-21T03:50:29;12.10;97.40
40257;DHT22;25977;45.462;9.210;2023-11-21T03:57:49;12.30;99.90
40257;DHT22;25977;45.462;9.210;2023-11-21T04:00:15;12.50;99.90
40257;DHT22;25977;45.462;9.210;2023-11-21T04:02:41;12.50;99.90
40257;DHT22;25977;45.462;9.210;2023-11-21T04:09:59;12.30;96.60
40257;DHT22;25977;45.462;9.210;2023-11-21T04:12:25;12.00;99.80
40257;DHT22;25977;45.462;9.210;2023-11-21T04:17:20;12.30;96.40
40257;DHT22;25977;45.462;9.210;2023-11-21T04:19:46;12.70;99.90
40257;DHT22;25977;45.462;9.210;2023-11-21T04:27:04;12.60;99.90
40257;DHT22;25977;45.462;9.210;2023-11-21T04:29:30;12.70;99.90
40257;DHT22;25977;45.462;9.210;2023-11-21T04:31:55;12.50;99.90
40257;DHT22;25977;45.462;9.210;2023-11-21T04:34:22;12.30;99.80
40257;DHT22;25977;45.462;9.210;2023-11-21T04:39:13;12.40;99.80
40257;DHT22;25977;45.462;9.210;2023-11-21T04:44:06;12.20;99.90
40257;DHT22;25977;45.462;9.210;2023-11-21T04:46:32;12.10;99.80
40257;DHT22;25977;45.462;9.210;2023-11-21T04:51:24;12.40;96.50
40257;DHT22;25977;45.462;9.210;2023-11-21T04:53:50;12.70;99.90
40257;DHT22;25977;45.462;9.210;2023-11-21T04:58:42;12.20;99.90
40257;DHT22;25977;45.462;9.210;2023-11-21T05:01:08;12.20;99.90
40257;DHT22;25977;45.462;9.210;2023-11-21T05:03:34;12.50;99.90
40257;DHT22;25977;45.462;9.210;2023-11-21T05:06:00;12.50;96.70
40257;DHT22;25977;45.462;9.210;2023-11-21T05:08:26;12.40;99.90
40257;DHT22;25977;45.462;9.210;2023-11-21T05:10:52;12.70;99.90
40257;DHT22;25977;45.462;9.210;2023-11-21T05:13:19;12.70;99.90
40257;DHT22;25977;45.462;9.210;2023-11-21T05:15:45;12.30;99.90
40257;DHT22;25977;45.462;9.210;2023-11-21T05:18:11;12.20;99.90
40257;DHT22;25977;45.462;9.210;2023-11-21T05:20:39;12.30;99.90
40257;DHT22;25977;45.462;9.210;2023-11-21T05:23:06;12.10;98.30
40257;DHT22;25977;45.462;9.210;2023-11-21T05:25:33;12.40;99.90
40257;DHT22;25977;45.462;9.210;2023-11-21T05:32:53;12.60;99.90
40257;DHT22;25977;45.462;9.210;2023-11-21T05:37:46;12.60;99.90
40257;DHT22;25977;45.462;9.210;2023-11-21T05:40:12;12.30;99.90
40257;DHT22;25977;45.462;9.210;2023-11-21T05:42:39;12.20;99.90
40257;DHT22;25977;45.462;9.210;2023-11-21T05:45:06;12.00;96.40
40257;DHT22;25977;45.462;9.210;2023-11-21T05:47:41;12.10;96.50
40257;DHT22;25977;45.462;9.210;2023-11-21T05:50:08;12.50;99.90
40257;DHT22;25977;45.462;9.210;2023-11-21T05:55:05;12.60;99.60
40257;DHT22;25977;45.462;9.210;2023-11-21T05:57:38;12.10;99.50
40257;DHT22;25977;45.462;9.210;2023-11-21T06:00:07;12.60;98.10
40257;DHT22;25977;45.462;9.210;2023-11-21T06:02:40;12.30;99.60
40257;DHT22;25977;45.462;9.210;2023-11-21T06:05:06;12.20;99.50
40257;DHT22;25977;45.462;9.210;2023-11-21T06:07:32;12.30;99.40
40257;DHT22;25977;45.462;9.210;2023-11-21T06:09:58;12.60;99.40
40257;DHT22;25977;45.462;9.210;2023-11-21T06:12:24;12.20;97.80
40257;DHT22;25977;45.462;9.210;2023-11-21T06:14:50;12.50;99.40
40257;DHT22;25977;45.462;9.210;2023-11-21T06:17:16;12.80;99.30
40257;DHT22;25977;45.462;9.210;2023-11-21T06:19:44;12.80;99.40
40257;DHT22;25977;45.462;9.210;2023-11-21T06:27:04;12.60;95.90
40257;DHT22;25977;45.462;9.210;2023-11-21T06:29:30;12.90;99.30
40257;DHT22;25977;45.462;9.210;2023-11-21T06:31:57;12.50;99.50
40257;DHT22;25977;45.462;9.210;2023-11-21T06:41:43;12.60;95.80
40257;DHT22;25977;45.462;9.210;2023-11-21T06:44:08;12.60;96.10
40257;DHT22;25977;45.462;9.210;2023-11-21T06:46:34;12.60;96.20
40257;DHT22;25977;45.462;9.210;2023-11-21T06:49:00;12.70;96.20
40257;DHT22;25977;45.462;9.210;2023-11-21T06:51:25;12.70;96.20
40257;DHT22;25977;45.462;9.210;2023-11-21T06:53:51;12.50;98.90
40257;DHT22;25977;45.462;9.210;2023-11-21T06:56:17;12.70;99.20
40257;DHT22;25977;45.462;9.210;2023-11-21T06:58:45;13.10;96.10
40257;DHT22;25977;45.462;9.210;2023-11-21T07:08:31;12.80;99.20
40257;DHT22;25977;45.462;9.210;2023-11-21T07:10:57;12.60;99.30
40257;DHT22;25977;45.462;9.210;2023-11-21T07:15:49;12.40;99.40
40257;DHT22;25977;45.462;9.210;2023-11-21T07:20:41;12.90;99.40
40257;DHT22;25977;45.462;9.210;2023-11-21T07:23:06;12.70;99.20
40257;DHT22;25977;45.462;9.210;2023-11-21T07:25:32;12.60;99.30
40257;DHT22;25977;45.462;9.210;2023-11-21T07:27:59;12.60;99.20
40257;DHT22;25977;45.462;9.210;2023-11-21T07:30:26;13.00;99.30
40257;DHT22;25977;45.462;9.210;2023-11-21T07:35:18;12.90;99.10
40257;DHT22;25977;45.462;9.210;2023-11-21T07:42:37;12.90;99.00
40257;DHT22;25977;45.462;9.210;2023-11-21T07:45:05;12.70;95.40
40257;DHT22;25977;45.462;9.210;2023-11-21T07:47:32;12.80;99.20
40257;DHT22;25977;45.462;9.210;2023-11-21T07:50:02;12.70;95.40
40257;DHT22;25977;45.462;9.210;2023-11-21T07:57:21;12.60;99.00
40257;DHT22;25977;45.462;9.210;2023-11-21T08:02:13;12.40;98.80
40257;DHT22;25977;45.462;9.210;2023-11-21T08:07:05;12.70;98.30
40257;DHT22;25977;45.462;9.210;2023-11-21T08:09:31;12.70;98.40
40257;DHT22;25977;45.462;9.210;2023-11-21T08:11:57;12.90;95.30
40257;DHT22;25977;45.462;9.210;2023-11-21T08:16:51;13.20;98.70
40257;DHT22;25977;45.462;9.210;2023-11-21T08:19:17;12.90;98.50
40257;DHT22;25977;45.462;9.210;2023-11-21T08:21:43;13.10;98.50
40257;DHT22;25977;45.462;9.210;2023-11-21T08:24:10;13.30;98.40
40257;DHT22;25977;45.462;9.210;2023-11-21T08:26:39;13.30;98.40
40257;DHT22;25977;45.462;9.210;2023-11-21T08:36:28;14.00;97.90
40257;DHT22;25977;45.462;9.210;2023-11-21T08:38:53;14.10;95.70
40257;DHT22;25977;45.462;9.210;2023-11-21T08:41:20;14.00;96.80
40257;DHT22;25977;45.462;9.210;2023-11-21T08:43:49;13.70;97.20
40257;DHT22;25977;45.462;9.210;2023-11-21T08:46:15;14.00;95.40
40257;DHT22;25977;45.462;9.210;2023-11-21T08:48:43;14.20;97.00
40257;DHT22;25977;45.462;9.210;2023-11-21T08:51:10;14.20;94.10
40257;DHT22;25977;45.462;9.210;2023-11-21T08:53:42;14.10;94.00
40257;DHT22;25977;45.462;9.210;2023-11-21T08:56:11;14.20;93.90
40257;DHT22;25977;45.462;9.210;2023-11-21T08:58:37;14.20;93.90
40257;DHT22;25977;45.462;9.210;2023-11-21T09:01:04;14.00;96.60
40257;DHT22;25977;45.462;9.210;2023-11-21T09:03:30;13.70;96.60
40257;DHT22;25977;45.462;9.210;2023-11-21T09:08:24;14.10;96.90
40257;DHT22;25977;45.462;9.210;2023-11-21T09:15:43;15.70;95.00
40257;DHT22;25977;45.462;9.210;2023-11-21T09:18:13;14.20;97.30
40257;DHT22;25977;45.462;9.210;2023-11-21T09:20:39;14.20;97.30
40257;DHT22;25977;45.462;9.210;2023-11-21T09:23:04;13.80;97.20
40257;DHT22;25977;45.462;9.210;2023-11-21T09:25:30;13.80;97.20
40257;DHT22;25977;45.462;9.210;2023-11-21T09:27:55;14.20;96.00
40257;DHT22;25977;45.462;9.210;2023-11-21T09:30:22;14.00;97.40
40257;DHT22;25977;45.462;9.210;2023-11-21T09:32:50;13.80;94.10
40257;DHT22;25977;45.462;9.210;2023-11-21T09:37:45;14.10;95.40
40257;DHT22;25977;45.462;9.210;2023-11-21T09:40:12;13.80;97.40
40257;DHT22;25977;45.462;9.210;2023-11-21T09:45:31;14.00;93.90
40257;DHT22;25977;45.462;9.210;2023-11-21T09:48:00;14.20;94.00
40257;DHT22;25977;45.462;9.210;2023-11-21T09:50:27;14.80;94.30
40257;DHT22;25977;45.462;9.210;2023-11-21T09:53:09;14.50;94.10
40257;DHT22;25977;45.462;9.210;2023-11-21T09:55:37;14.50;93.90
40257;DHT22;25977;45.462;9.210;2023-11-21T09:58:06;14.50;93.70
40257;DHT22;25977;45.462;9.210;2023-11-21T10:00:46;14.40;93.60
40257;DHT22;25977;45.462;9.210;2023-11-21T10:03:13;14.30;93.70
40257;DHT22;25977;45.462;9.210;2023-11-21T10:05:41;14.20;93.60
40257;DHT22;25977;45.462;9.210;2023-11-21T10:08:09;14.00;93.80
40257;DHT22;25977;45.462;9.210;2023-11-21T10:10:42;13.90;94.00
40257;DHT22;25977;45.462;9.210;2023-11-21T10:13:12;13.90;94.10
40257;DHT22;25977;45.462;9.210;2023-11-21T10:15:38;13.80;94.20
40257;DHT22;25977;45.462;9.210;2023-11-21T10:18:07;13.70;97.00
40257;DHT22;25977;45.462;9.210;2023-11-21T10:20:33;13.60;97.00
40257;DHT22;25977;45.462;9.210;2023-11-21T10:23:00;13.70;96.90
40257;DHT22;25977;45.462;9.210;2023-11-21T10:25:30;14.00;96.80
40257;DHT22;25977;45.462;9.210;2023-11-21T10:28:01;14.30;96.70
40257;DHT22;25977;45.462;9.210;2023-11-21T10:30:37;14.50;96.80
40257;DHT22;25977;45.462;9.210;2023-11-21T10:33:04;14.30;96.40
40257;DHT22;25977;45.462;9.210;2023-11-21T10:35:46;14.10;93.60
40257;DHT22;25977;45.462;9.210;2023-11-21T10:38:14;14.20;96.60
40257;DHT22;25977;45.462;9.210;2023-11-21T10:40:44;14.20;93.40
40257;DHT22;25977;45.462;9.210;2023-11-21T10:43:10;14.60;96.50
40257;DHT22;25977;45.462;9.210;2023-11-21T10:45:39;14.10;96.30
40257;DHT22;25977;45.462;9.210;2023-11-21T10:48:06;14.40;96.30
40257;DHT22;25977;45.462;9.210;2023-11-21T10:50:36;14.30;96.20
40257;DHT22;25977;45.462;9.210;2023-11-21T10:53:05;14.70;96.40
40257;DHT22;25977;45.462;9.210;2023-11-21T10:55:33;14.70;93.50
40257;DHT22;25977;45.462;9.210;2023-11-21T10:58:01;14.70;93.50
40257;DHT22;25977;45.462;9.210;2023-11-21T11:00:29;14.50;93.30
40257;DHT22;25977;45.462;9.210;2023-11-21T11:02:55;14.60;95.80
40257;DHT22;25977;45.462;9.210;2023-11-21T11:05:23;14.90;95.80
40257;DHT22;25977;45.462;9.210;2023-11-21T11:08:27;14.80;93.00
40257;DHT22;25977;45.462;9.210;2023-11-21T11:10:46;14.80;93.10
40257;DHT22;25977;45.462;9.210;2023-11-21T11:13:15;14.80;93.10
40257;DHT22;25977;45.462;9.210;2023-11-21T11:15:41;14.80;93.00
40257;DHT22;25977;45.462;9.210;2023-11-21T11:18:08;14.90;93.00
40257;DHT22;25977;45.462;9.210;2023-11-21T11:20:36;14.90;92.80
40257;DHT22;25977;45.462;9.210;2023-11-21T11:23:43;15.00;92.90
40257;DHT22;25977;45.462;9.210;2023-11-21T11:26:37;15.00;92.90
40257;DHT22;25977;45.462;9.210;2023-11-21T11:29:32;14.90;92.90
40257;DHT22;25977;45.462;9.210;2023-11-21T11:32:43;15.00;92.90
40257;DHT22;25977;45.462;9.210;2023-11-21T11:37:44;15.60;92.80
40257;DHT22;25977;45.462;9.210;2023-11-21T11:40:12;15.20;92.60
40257;DHT22;25977;45.462;9.210;2023-11-21T11:42:38;15.20;92.60
40257;DHT22;25977;45.462;9.210;2023-11-21T11:45:19;15.30;92.70
40257;DHT22;25977;45.462;9.210;2023-11-21T11:47:47;15.70;92.80
40257;DHT22;25977;45.462;9.210;2023-11-21T11:50:13;15.10;92.60
40257;DHT22;25977;45.462;9.210;2023-11-21T11:52:46;14.80;92.70
40257;DHT22;25977;45.462;9.210;2023-11-21T11:55:13;14.80;92.90
40257;DHT22;25977;45.462;9.210;2023-11-21T11:57:40;15.00;92.90
40257;DHT22;25977;45.462;9.210;2023-11-21T12:00:15;15.00;92.70
40257;DHT22;25977;45.462;9.210;2023-11-21T12:02:44;15.00;95.00
40257;DHT22;25977;45.462;9.210;2023-11-21T12:05:14;14.90;95.00
40257;DHT22;25977;45.462;9.210;2023-11-21T12:07:45;15.20;95.00
40257;DHT22;25977;45.462;9.210;2023-11-21T12:10:15;14.90;95.00
40257;DHT22;25977;45.462;9.210;2023-11-21T12:12:47;15.10;95.10
40257;DHT22;25977;45.462;9.210;2023-11-21T12:15:13;15.20;95.20
40257;DHT22;25977;45.462;9.210;2023-11-21T12:17:43;15.30;92.70
40257;DHT22;25977;45.462;9.210;2023-11-21T12:20:10;15.30;92.80
40257;DHT22;25977;45.462;9.210;2023-11-21T12:23:06;15.30;92.70
40257;DHT22;25977;45.462;9.210;2023-11-21T12:25:32;15.40;92.70
40257;DHT22;25977;45.462;9.210;2023-11-21T12:27:59;15.30;92.60
40257;DHT22;25977;45.462;9.210;2023-11-21T12:30:30;15.70;92.70
40257;DHT22;25977;45.462;9.210;2023-11-21T12:32:57;15.40;92.50
40257;DHT22;25977;45.462;9.210;2023-11-21T12:35:28;15.50;92.30
40257;DHT22;25977;45.462;9.210;2023-11-21T12:37:57;15.80;92.50
40257;DHT22;25977;45.462;9.210;2023-11-21T12:40:23;15.70;92.60
40257;DHT22;25977;45.462;9.210;2023-11-21T12:42:52;15.50;92.50
40257;DHT22;25977;45.462;9.210;2023-11-21T12:45:26;15.50;92.40
40257;DHT22;25977;45.462;9.210;2023-11-21T12:50:23;15.30;92.20
40257;DHT22;25977;45.462;9.210;2023-11-21T12:52:51;15.60;92.10
40257;DHT22;25977;45.462;9.210;2023-11-21T12:55:20;15.60;92.20
40257;DHT22;25977;45.462;9.210;2023-11-21T12:57:51;15.90;92.20
40257;DHT22;25977;45.462;9.210;2023-11-21T13:00:18;15.80;92.30
40257;DHT22;25977;45.462;9.210;2023-11-21T13:02:56;15.70;92.20
40257;DHT22;25977;45.462;9.210;2023-11-21T13:05:29;15.60;92.20
40257;DHT22;25977;45.462;9.210;2023-11-21T13:07:57;15.40;94.50
40257;DHT22;25977;45.462;9.210;2023-11-21T13:10:27;15.50;94.60
40257;DHT22;25977;45.462;9.210;2023-11-21T13:13:00;15.80;94.80
40257;DHT22;25977;45.462;9.210;2023-11-21T13:15:27;15.70;94.80
40257;DHT22;25977;45.462;9.210;2023-11-21T13:17:53;15.60;92.30
40257;DHT22;25977;45.462;9.210;2023-11-21T13:20:19;15.50;92.40
40257;DHT22;25977;45.462;9.210;2023-11-21T13:22:53;15.50;92.30
40257;DHT22;25977;45.462;9.210;2023-11-21T13:25:21;15.30;92.30
40257;DHT22;25977;45.462;9.210;2023-11-21T13:27:47;15.40;92.50
40257;DHT22;25977;45.462;9.210;2023-11-21T13:30:14;15.30;92.30
40257;DHT22;25977;45.462;9.210;2023-11-21T13:32:45;15.50;95.00
40257;DHT22;25977;45.462;9.210;2023-11-21T13:35:16;15.40;92.60
40257;DHT22;25977;45.462;9.210;2023-11-21T13:40:25;15.30;92.30
40257;DHT22;25977;45.462;9.210;2023-11-21T13:42:55;15.30;92.60
40257;DHT22;25977;45.462;9.210;2023-11-21T13:45:25;15.30;92.70
40257;DHT22;25977;45.462;9.210;2023-11-21T13:47:53;15.30;92.40
40257;DHT22;25977;45.462;9.210;2023-11-21T13:50:24;15.30;92.40
40257;DHT22;25977;45.462;9.210;2023-11-21T13:52:54;15.40;92.50
40257;DHT22;25977;45.462;9.210;2023-11-21T13:55:20;15.40;92.50
40257;DHT22;25977;45.462;9.210;2023-11-21T13:57:49;15.20;92.50
40257;DHT22;25977;45.462;9.210;2023-11-21T14:00:17;15.30;92.70
40257;DHT22;25977;45.462;9.210;2023-11-21T14:03:09;15.30;92.60
40257;DHT22;25977;45.462;9.210;2023-11-21T14:05:43;15.20;92.60
40257;DHT22;25977;45.462;9.210;2023-11-21T14:08:10;15.20;92.60
40257;DHT22;25977;45.462;9.210;2023-11-21T14:10:37;14.90;92.70
40257;DHT22;25977;45.462;9.210;2023-11-21T14:13:11;15.20;92.70
40257;DHT22;25977;45.462;9.210;2023-11-21T14:15:39;15.00;92.80
40257;DHT22;25977;45.462;9.210;2023-11-21T14:18:09;15.00;95.30
40257;DHT22;25977;45.462;9.210;2023-11-21T14:20:40;14.70;95.40
40257;DHT22;25977;45.462;9.210;2023-11-21T14:25:34;14.80;96.00
40257;DHT22;25977;45.462;9.210;2023-11-21T14:28:00;14.70;96.20
40257;DHT22;25977;45.462;9.210;2023-11-21T14:30:26;14.50;96.50
40257;DHT22;25977;45.462;9.210;2023-11-21T14:32:52;14.20;95.90
40257;DHT22;25977;45.462;9.210;2023-11-21T14:35:18;14.10;96.50
40257;DHT22;25977;45.462;9.210;2023-11-21T14:37:45;14.00;96.50
40257;DHT22;25977;45.462;9.210;2023-11-21T14:40:12;14.70;96.80
40257;DHT22;25977;45.462;9.210;2023-11-21T14:42:42;14.20;97.00
40257;DHT22;25977;45.462;9.210;2023-11-21T14:45:08;13.90;96.20
40257;DHT22;25977;45.462;9.210;2023-11-21T14:50:04;14.00;96.00
40257;DHT22;25977;45.462;9.210;2023-11-21T14:52:49;14.10;96.70
40257;DHT22;25977;45.462;9.210;2023-11-21T14:55:24;13.70;95.60
40257;DHT22;25977;45.462;9.210;2023-11-21T14:58:17;14.30;97.00
40257;DHT22;25977;45.462;9.210;2023-11-21T15:00:58;13.80;97.00
40257;DHT22;25977;45.462;9.210;2023-11-21T15:03:26;14.20;97.30
40257;DHT22;25977;45.462;9.210;2023-11-21T15:06:02;14.10;97.40
40257;DHT22;25977;45.462;9.210;2023-11-21T15:08:48;13.90;94.30
40257;DHT22;25977;45.462;9.210;2023-11-21T15:13:53;14.10;97.30
40257;DHT22;25977;45.462;9.210;2023-11-21T15:18:45;14.20;95.20
40257;DHT22;25977;45.462;9.210;2023-11-21T15:21:11;14.60;94.90
40257;DHT22;25977;45.462;9.210;2023-11-21T15:23:38;14.20;96.70
40257;DHT22;25977;45.462;9.210;2023-11-21T15:26:04;14.50;94.50
40257;DHT22;25977;45.462;9.210;2023-11-21T15:28:30;14.10;94.50
40257;DHT22;25977;45.462;9.210;2023-11-21T15:30:58;14.70;96.40
40257;DHT22;25977;45.462;9.210;2023-11-21T15:33:23;14.50;96.50
40257;DHT22;25977;45.462;9.210;2023-11-21T15:38:15;14.70;96.40
40257;DHT22;25977;45.462;9.210;2023-11-21T15:40:41;14.40;96.50
40257;DHT22;25977;45.462;9.210;2023-11-21T15:43:08;14.10;96.20
40257;DHT22;25977;45.462;9.210;2023-11-21T15:45:34;13.90;96.20
40257;DHT22;25977;45.462;9.210;2023-11-21T15:47:59;14.50;96.20
40257;DHT22;25977;45.462;9.210;2023-11-21T15:52:53;14.30;95.80
40257;DHT22;25977;45.462;9.210;2023-11-21T15:55:19;14.00;95.80
40257;DHT22;25977;45.462;9.210;2023-11-21T16:00:11;13.30;95.90
40257;DHT22;25977;45.462;9.210;2023-11-21T16:02:50;13.80;94.50
40257;DHT22;25977;45.462;9.210;2023-11-21T16:05:17;14.10;95.90
40257;DHT22;25977;45.462;9.210;2023-11-21T16:07:43;13.90;95.90
40257;DHT22;25977;45.462;9.210;2023-11-21T16:10:10;14.00;92.80
40257;DHT22;25977;45.462;9.210;2023-11-21T16:12:40;13.90;95.80
40257;DHT22;25977;45.462;9.210;2023-11-21T16:15:07;14.00;92.80
40257;DHT22;25977;45.462;9.210;2023-11-21T16:20:04;14.00;96.00
40257;DHT22;25977;45.462;9.210;2023-11-21T16:22:38;14.10;96.00
40257;DHT22;25977;45.462;9.210;2023-11-21T16:25:05;14.20;93.10
40257;DHT22;25977;45.462;9.210;2023-11-21T16:27:36;14.00;93.10
40257;DHT22;25977;45.462;9.210;2023-11-21T16:30:06;14.00;93.20
40257;DHT22;25977;45.462;9.210;2023-11-21T16:32:32;14.00;93.20
40257;DHT22;25977;45.462;9.210;2023-11-21T16:35:00;14.00;93.20
40257;DHT22;25977;45.462;9.210;2023-11-21T16:37:26;14.00;93.30
40257;DHT22;25977;45.462;9.210;2023-11-21T16:39:52;14.00;93.30
40257;DHT22;25977;45.462;9.210;2023-11-21T16:42:18;14.10;93.30
40257;DHT22;25977;45.462;9.210;2023-11-21T16:44:43;14.00;93.30
40257;DHT22;25977;45.462;9.210;2023-11-21T16:47:09;14.00;93.30
40257;DHT22;25977;45.462;9.210;2023-11-21T16:49:35;14.10;93.40
40257;DHT22;25977;45.462;9.210;2023-11-21T16:52:05;13.90;93.30
40257;DHT22;25977;45.462;9.210;2023-11-21T16:54:34;13.80;93.40
40257;DHT22;25977;45.462;9.210;2023-11-21T16:56:59;13.90;93.40
40257;DHT22;25977;45.462;9.210;2023-11-21T16:59:25;13.80;93.30
40257;DHT22;25977;45.462;9.210;2023-11-21T17:01:51;14.10;93.40
40257;DHT22;25977;45.462;9.210;2023-11-21T17:04:16;13.90;93.40
40257;DHT22;25977;45.462;9.210;2023-11-21T17:06:45;13.60;93.60
40257;DHT22;25977;45.462;9.210;2023-11-21T17:09:12;13.90;95.80
40257;DHT22;25977;45.462;9.210;2023-11-21T17:11:40;13.80;93.30
40257;DHT22;25977;45.462;9.210;2023-11-21T17:14:07;13.90;95.70
40257;DHT22;25977;45.462;9.210;2023-11-21T17:16:33;13.70;95.80
40257;DHT22;25977;45.462;9.210;2023-11-21T17:21:25;14.00;94.70
40257;DHT22;25977;45.462;9.210;2023-11-21T17:23:50;13.90;94.60
40257;DHT22;25977;45.462;9.210;2023-11-21T17:26:17;13.60;94.70
40257;DHT22;25977;45.462;9.210;2023-11-21T17:28:43;13.30;96.00
40257;DHT22;25977;45.462;9.210;2023-11-21T17:31:09;13.90;96.20
40257;DHT22;25977;45.462;9.210;2023-11-21T17:33:35;13.70;96.20
40257;DHT22;25977;45.462;9.210;2023-11-21T17:36:01;13.60;93.10
40257;DHT22;25977;45.462;9.210;2023-11-21T17:38:29;13.80;96.30
40257;DHT22;25977;45.462;9.210;2023-11-21T17:40:55;13.40;96.20
40257;DHT22;25977;45.462;9.210;2023-11-21T17:43:21;13.40;95.80
40257;DHT22;25977;45.462;9.210;2023-11-21T17:48:14;13.20;94.30
40257;DHT22;25977;45.462;9.210;2023-11-21T17:50:40;13.50;94.00
40257;DHT22;25977;45.462;9.210;2023-11-21T17:53:07;13.50;93.10
40257;DHT22;25977;45.462;9.210;2023-11-21T17:55:34;13.50;93.10
40257;DHT22;25977;45.462;9.210;2023-11-21T17:57:59;13.40;96.30
40257;DHT22;25977;45.462;9.210;2023-11-21T18:00:26;14.00;93.40
40257;DHT22;25977;45.462;9.210;2023-11-21T18:02:53;13.50;93.30
40257;DHT22;25977;45.462;9.210;2023-11-21T18:05:19;13.40;96.00
40257;DHT22;25977;45.462;9.210;2023-11-21T18:07:47;13.60;95.80
40257;DHT22;25977;45.462;9.210;2023-11-21T18:10:13;13.40;94.80